Terminal Aerodrome Forecast
Issued by NWS King Salmon, AK

Home | Current Version | Previous Version | Text Only | Print | Product List | Glossary On
Versions: 1 2 3 4 5 6 7 8 9 10 11 12 13 14 15 16 17 18 19 20 21 22 23 24 25 26 27 28 29 30 31 32 33 34 35 36 37 38
000
FTAK31 PANC 231738
TAFAKN
TAF
PAKN 231738Z 2318/2418 16012KT P6SM SCT025 OVC040
      TEMPO 2318/2321 -RA BKN025
     FM232100 17012G18KT P6SM -RA SCT015 BKN025 OVC035
     FM240700 18015G22KT 5SM -RA BR OVC007
     FM241700 20012G18KT P6SM -SHRA SCT007 OVC018=

USA.gov is the U.S. government's official web portal to all federal, state and local government web resources and services.